sensor_id;sensor_type;location;lat;lon;timestamp;temperature;humidity
40732;DHT22;26420;52.256;9.096;2024-01-06T00:00:13;6.50;99.90
40732;DHT22;26420;52.256;9.096;2024-01-06T00:05:17;6.50;99.90
40732;DHT22;26420;52.256;9.096;2024-01-06T00:10:19;6.50;99.90
40732;DHT22;26420;52.256;9.096;2024-01-06T00:15:21;6.40;99.90
40732;DHT22;26420;52.256;9.096;2024-01-06T00:20:23;6.40;99.90
40732;DHT22;26420;52.256;9.096;2024-01-06T00:25:25;6.40;99.90
40732;DHT22;26420;52.256;9.096;2024-01-06T00:30:27;6.40;99.90
40732;DHT22;26420;52.256;9.096;2024-01-06T00:35:29;6.40;99.90
40732;DHT22;26420;52.256;9.096;2024-01-06T00:40:31;6.40;99.90
40732;DHT22;26420;52.256;9.096;2024-01-06T00:45:34;6.40;99.90
40732;DHT22;26420;52.256;9.096;2024-01-06T00:50:36;6.40;99.90
40732;DHT22;26420;52.256;9.096;2024-01-06T00:55:38;6.50;99.90
40732;DHT22;26420;52.256;9.096;2024-01-06T01:00:39;6.40;99.90
40732;DHT22;26420;52.256;9.096;2024-01-06T01:05:41;6.40;99.90
40732;DHT22;26420;52.256;9.096;2024-01-06T01:10:43;6.40;99.90
40732;DHT22;26420;52.256;9.096;2024-01-06T01:15:46;6.40;99.90
40732;DHT22;26420;52.256;9.096;2024-01-06T01:20:48;6.30;99.90
40732;DHT22;26420;52.256;9.096;2024-01-06T01:25:50;6.30;99.90
40732;DHT22;26420;52.256;9.096;2024-01-06T01:30:51;6.30;99.90
40732;DHT22;26420;52.256;9.096;2024-01-06T01:35:54;6.30;99.90
40732;DHT22;26420;52.256;9.096;2024-01-06T01:40:55;6.30;99.90
40732;DHT22;26420;52.256;9.096;2024-01-06T01:45:58;6.30;99.90
40732;DHT22;26420;52.256;9.096;2024-01-06T01:51:00;6.30;99.90
40732;DHT22;26420;52.256;9.096;2024-01-06T01:56:02;6.40;99.90
40732;DHT22;26420;52.256;9.096;2024-01-06T02:01:05;6.30;99.90
40732;DHT22;26420;52.256;9.096;2024-01-06T02:06:08;6.30;99.90
40732;DHT22;26420;52.256;9.096;2024-01-06T02:11:09;6.30;99.90
40732;DHT22;26420;52.256;9.096;2024-01-06T02:16:11;6.20;99.90
40732;DHT22;26420;52.256;9.096;2024-01-06T02:21:13;6.10;99.90
40732;DHT22;26420;52.256;9.096;2024-01-06T02:26:16;6.10;99.90
40732;DHT22;26420;52.256;9.096;2024-01-06T02:31:18;6.10;99.90
40732;DHT22;26420;52.256;9.096;2024-01-06T02:36:20;6.00;99.90
40732;DHT22;26420;52.256;9.096;2024-01-06T02:41:22;6.00;99.90
40732;DHT22;26420;52.256;9.096;2024-01-06T02:46:23;5.90;99.90
40732;DHT22;26420;52.256;9.096;2024-01-06T02:51:25;6.00;99.90
40732;DHT22;26420;52.256;9.096;2024-01-06T02:56:27;6.00;99.90
40732;DHT22;26420;52.256;9.096;2024-01-06T03:01:31;5.90;99.90
40732;DHT22;26420;52.256;9.096;2024-01-06T03:06:33;5.90;99.90
40732;DHT22;26420;52.256;9.096;2024-01-06T03:11:35;5.90;99.90
40732;DHT22;26420;52.256;9.096;2024-01-06T03:16:37;5.90;99.90
40732;DHT22;26420;52.256;9.096;2024-01-06T03:21:39;6.00;99.90
40732;DHT22;26420;52.256;9.096;2024-01-06T03:26:41;5.90;99.90
40732;DHT22;26420;52.256;9.096;2024-01-06T03:31:44;5.90;99.90
40732;DHT22;26420;52.256;9.096;2024-01-06T03:36:46;5.90;99.90
40732;DHT22;26420;52.256;9.096;2024-01-06T03:41:48;6.00;99.90
40732;DHT22;26420;52.256;9.096;2024-01-06T03:46:50;6.00;99.90
40732;DHT22;26420;52.256;9.096;2024-01-06T03:51:52;6.00;99.90
40732;DHT22;26420;52.256;9.096;2024-01-06T03:56:54;5.90;99.90
40732;DHT22;26420;52.256;9.096;2024-01-06T04:01:56;5.80;99.90
40732;DHT22;26420;52.256;9.096;2024-01-06T04:06:57;5.80;99.90
40732;DHT22;26420;52.256;9.096;2024-01-06T04:11:59;5.80;99.90
40732;DHT22;26420;52.256;9.096;2024-01-06T04:17:02;5.80;99.90
40732;DHT22;26420;52.256;9.096;2024-01-06T04:22:04;5.70;99.90
40732;DHT22;26420;52.256;9.096;2024-01-06T04:27:06;5.70;99.90
40732;DHT22;26420;52.256;9.096;2024-01-06T04:32:08;5.80;99.90
40732;DHT22;26420;52.256;9.096;2024-01-06T04:37:10;5.90;99.90
40732;DHT22;26420;52.256;9.096;2024-01-06T04:42:12;5.90;99.90
40732;DHT22;26420;52.256;9.096;2024-01-06T04:47:14;5.90;99.90
40732;DHT22;26420;52.256;9.096;2024-01-06T04:52:16;5.90;99.90
40732;DHT22;26420;52.256;9.096;2024-01-06T04:57:18;5.90;99.90
40732;DHT22;26420;52.256;9.096;2024-01-06T05:02:22;5.80;99.90
40732;DHT22;26420;52.256;9.096;2024-01-06T05:07:24;5.90;99.90
40732;DHT22;26420;52.256;9.096;2024-01-06T05:12:26;5.90;99.90
40732;DHT22;26420;52.256;9.096;2024-01-06T05:17:27;5.80;99.90
40732;DHT22;26420;52.256;9.096;2024-01-06T05:22:29;5.80;99.90
40732;DHT22;26420;52.256;9.096;2024-01-06T05:27:31;5.80;99.90
40732;DHT22;26420;52.256;9.096;2024-01-06T05:32:33;5.80;99.90
40732;DHT22;26420;52.256;9.096;2024-01-06T05:37:35;5.70;99.90
40732;DHT22;26420;52.256;9.096;2024-01-06T05:42:37;5.60;99.90
40732;DHT22;26420;52.256;9.096;2024-01-06T05:47:39;5.60;99.90
40732;DHT22;26420;52.256;9.096;2024-01-06T05:52:41;5.70;99.90
40732;DHT22;26420;52.256;9.096;2024-01-06T05:57:43;5.80;99.90
40732;DHT22;26420;52.256;9.096;2024-01-06T06:02:44;5.80;99.90
40732;DHT22;26420;52.256;9.096;2024-01-06T06:07:46;5.70;99.90
40732;DHT22;26420;52.256;9.096;2024-01-06T06:12:48;5.60;99.90
40732;DHT22;26420;52.256;9.096;2024-01-06T06:17:50;5.60;99.90
40732;DHT22;26420;52.256;9.096;2024-01-06T06:22:52;5.50;99.90
40732;DHT22;26420;52.256;9.096;2024-01-06T06:27:53;5.50;99.90
40732;DHT22;26420;52.256;9.096;2024-01-06T06:32:56;5.50;99.90
40732;DHT22;26420;52.256;9.096;2024-01-06T06:37:58;5.40;99.90
40732;DHT22;26420;52.256;9.096;2024-01-06T06:42:59;5.40;99.90
40732;DHT22;26420;52.256;9.096;2024-01-06T06:48:01;5.40;99.90
40732;DHT22;26420;52.256;9.096;2024-01-06T06:53:03;5.40;99.90
40732;DHT22;26420;52.256;9.096;2024-01-06T06:58:05;5.40;99.90
40732;DHT22;26420;52.256;9.096;2024-01-06T07:03:07;5.40;99.90
40732;DHT22;26420;52.256;9.096;2024-01-06T07:08:09;5.60;99.90
40732;DHT22;26420;52.256;9.096;2024-01-06T07:13:11;5.60;99.90
40732;DHT22;26420;52.256;9.096;2024-01-06T07:18:13;5.60;99.90
40732;DHT22;26420;52.256;9.096;2024-01-06T07:23:15;5.50;99.90
40732;DHT22;26420;52.256;9.096;2024-01-06T07:28:16;5.50;99.90
40732;DHT22;26420;52.256;9.096;2024-01-06T07:33:18;5.50;99.90
40732;DHT22;26420;52.256;9.096;2024-01-06T07:38:20;5.60;99.90
40732;DHT22;26420;52.256;9.096;2024-01-06T07:43:22;5.60;99.90
40732;DHT22;26420;52.256;9.096;2024-01-06T07:48:24;5.50;99.90
40732;DHT22;26420;52.256;9.096;2024-01-06T07:53:26;5.50;99.90
40732;DHT22;26420;52.256;9.096;2024-01-06T07:58:27;5.40;99.90
40732;DHT22;26420;52.256;9.096;2024-01-06T08:03:30;5.40;99.90
40732;DHT22;26420;52.256;9.096;2024-01-06T08:08:32;5.40;99.90
40732;DHT22;26420;52.256;9.096;2024-01-06T08:13:34;5.40;99.90
40732;DHT22;26420;52.256;9.096;2024-01-06T08:18:36;5.30;99.90
40732;DHT22;26420;52.256;9.096;2024-01-06T08:23:38;5.30;99.90
40732;DHT22;26420;52.256;9.096;2024-01-06T08:28:39;5.30;99.90
40732;DHT22;26420;52.256;9.096;2024-01-06T08:33:41;5.30;99.90
40732;DHT22;26420;52.256;9.096;2024-01-06T08:38:43;5.30;99.90
40732;DHT22;26420;52.256;9.096;2024-01-06T08:43:45;5.30;99.90
40732;DHT22;26420;52.256;9.096;2024-01-06T08:48:47;5.20;99.90
40732;DHT22;26420;52.256;9.096;2024-01-06T08:53:50;5.20;99.90
40732;DHT22;26420;52.256;9.096;2024-01-06T08:58:52;5.20;99.90
40732;DHT22;26420;52.256;9.096;2024-01-06T09:03:54;5.20;99.90
40732;DHT22;26420;52.256;9.096;2024-01-06T09:08:56;5.20;99.90
40732;DHT22;26420;52.256;9.096;2024-01-06T09:13:57;5.20;99.90
40732;DHT22;26420;52.256;9.096;2024-01-06T09:18:59;5.10;99.90
40732;DHT22;26420;52.256;9.096;2024-01-06T09:24:02;5.10;99.90
40732;DHT22;26420;52.256;9.096;2024-01-06T09:29:07;5.10;99.90
40732;DHT22;26420;52.256;9.096;2024-01-06T09:34:12;5.10;99.90
40732;DHT22;26420;52.256;9.096;2024-01-06T09:39:14;5.00;99.90
40732;DHT22;26420;52.256;9.096;2024-01-06T09:44:16;5.00;99.90
40732;DHT22;26420;52.256;9.096;2024-01-06T09:49:23;5.00;99.90
40732;DHT22;26420;52.256;9.096;2024-01-06T09:54:30;4.90;99.90
40732;DHT22;26420;52.256;9.096;2024-01-06T09:59:35;4.90;99.90
40732;DHT22;26420;52.256;9.096;2024-01-06T10:04:38;4.90;99.90
40732;DHT22;26420;52.256;9.096;2024-01-06T10:09:41;5.00;99.90
40732;DHT22;26420;52.256;9.096;2024-01-06T10:14:44;5.00;99.90
40732;DHT22;26420;52.256;9.096;2024-01-06T10:19:46;5.00;99.90
40732;DHT22;26420;52.256;9.096;2024-01-06T10:24:49;4.90;99.90
40732;DHT22;26420;52.256;9.096;2024-01-06T10:29:51;4.90;99.90
40732;DHT22;26420;52.256;9.096;2024-01-06T10:34:53;4.90;99.90
40732;DHT22;26420;52.256;9.096;2024-01-06T10:40:09;4.90;99.90
40732;DHT22;26420;52.256;9.096;2024-01-06T10:45:13;4.80;99.90
40732;DHT22;26420;52.256;9.096;2024-01-06T10:50:19;4.90;99.90
40732;DHT22;26420;52.256;9.096;2024-01-06T10:55:23;4.80;99.90
40732;DHT22;26420;52.256;9.096;2024-01-06T11:00:26;4.80;99.90
40732;DHT22;26420;52.256;9.096;2024-01-06T11:05:28;4.80;99.90
40732;DHT22;26420;52.256;9.096;2024-01-06T11:10:32;4.90;99.90
40732;DHT22;26420;52.256;9.096;2024-01-06T11:15:51;4.90;99.90
40732;DHT22;26420;52.256;9.096;2024-01-06T11:26:15;4.90;99.90
40732;DHT22;26420;52.256;9.096;2024-01-06T11:31:18;4.90;99.90
40732;DHT22;26420;52.256;9.096;2024-01-06T11:36:20;5.00;99.90
40732;DHT22;26420;52.256;9.096;2024-01-06T11:41:45;5.00;99.90
40732;DHT22;26420;52.256;9.096;2024-01-06T11:46:50;5.00;99.90
40732;DHT22;26420;52.256;9.096;2024-01-06T11:51:53;5.00;99.90
40732;DHT22;26420;52.256;9.096;2024-01-06T11:56:55;5.10;99.90
40732;DHT22;26420;52.256;9.096;2024-01-06T12:01:59;5.10;99.90
40732;DHT22;26420;52.256;9.096;2024-01-06T12:07:07;5.20;99.90
40732;DHT22;26420;52.256;9.096;2024-01-06T12:12:10;5.20;99.90
40732;DHT22;26420;52.256;9.096;2024-01-06T12:17:15;5.30;99.90
40732;DHT22;26420;52.256;9.096;2024-01-06T12:22:17;5.30;99.90
40732;DHT22;26420;52.256;9.096;2024-01-06T12:27:19;5.20;99.90
40732;DHT22;26420;52.256;9.096;2024-01-06T12:32:23;5.40;99.90
40732;DHT22;26420;52.256;9.096;2024-01-06T12:37:25;5.40;99.90
40732;DHT22;26420;52.256;9.096;2024-01-06T12:42:26;5.40;99.90
40732;DHT22;26420;52.256;9.096;2024-01-06T12:47:29;5.40;99.90
40732;DHT22;26420;52.256;9.096;2024-01-06T12:52:31;5.10;99.90
40732;DHT22;26420;52.256;9.096;2024-01-06T12:57:35;5.10;99.90
40732;DHT22;26420;52.256;9.096;2024-01-06T13:02:37;5.10;99.90
40732;DHT22;26420;52.256;9.096;2024-01-06T13:07:39;5.00;99.90
40732;DHT22;26420;52.256;9.096;2024-01-06T13:12:41;5.00;99.90
40732;DHT22;26420;52.256;9.096;2024-01-06T13:17:44;4.90;99.90
40732;DHT22;26420;52.256;9.096;2024-01-06T13:22:46;4.80;99.90
40732;DHT22;26420;52.256;9.096;2024-01-06T13:27:47;4.70;99.90
40732;DHT22;26420;52.256;9.096;2024-01-06T13:32:50;4.70;99.90
40732;DHT22;26420;52.256;9.096;2024-01-06T13:37:52;4.70;99.90
40732;DHT22;26420;52.256;9.096;2024-01-06T13:42:54;4.60;99.90
40732;DHT22;26420;52.256;9.096;2024-01-06T13:47:57;4.50;99.90
40732;DHT22;26420;52.256;9.096;2024-01-06T13:52:59;4.40;99.90
40732;DHT22;26420;52.256;9.096;2024-01-06T13:58:04;4.40;99.90
40732;DHT22;26420;52.256;9.096;2024-01-06T14:03:07;4.40;99.90
40732;DHT22;26420;52.256;9.096;2024-01-06T14:08:09;4.30;99.90
40732;DHT22;26420;52.256;9.096;2024-01-06T14:13:10;4.40;99.90
40732;DHT22;26420;52.256;9.096;2024-01-06T14:18:12;4.30;99.90
40732;DHT22;26420;52.256;9.096;2024-01-06T14:23:16;4.30;99.90
40732;DHT22;26420;52.256;9.096;2024-01-06T14:28:18;4.20;99.90
40732;DHT22;26420;52.256;9.096;2024-01-06T14:33:20;4.00;99.90
40732;DHT22;26420;52.256;9.096;2024-01-06T14:38:23;4.10;99.90
40732;DHT22;26420;52.256;9.096;2024-01-06T14:43:25;4.00;99.90
40732;DHT22;26420;52.256;9.096;2024-01-06T14:48:27;3.90;99.90
40732;DHT22;26420;52.256;9.096;2024-01-06T14:53:29;3.80;99.90
40732;DHT22;26420;52.256;9.096;2024-01-06T14:58:30;3.70;99.90
40732;DHT22;26420;52.256;9.096;2024-01-06T15:03:32;3.70;99.90
40732;DHT22;26420;52.256;9.096;2024-01-06T15:08:34;3.60;99.90
40732;DHT22;26420;52.256;9.096;2024-01-06T15:13:36;3.50;99.90
40732;DHT22;26420;52.256;9.096;2024-01-06T15:18:38;3.40;99.90
40732;DHT22;26420;52.256;9.096;2024-01-06T15:23:40;3.30;99.90
40732;DHT22;26420;52.256;9.096;2024-01-06T15:28:42;3.40;99.90
40732;DHT22;26420;52.256;9.096;2024-01-06T15:33:44;3.40;99.90
40732;DHT22;26420;52.256;9.096;2024-01-06T15:38:48;3.30;99.90
40732;DHT22;26420;52.256;9.096;2024-01-06T15:43:50;3.20;99.90
40732;DHT22;26420;52.256;9.096;2024-01-06T15:48:52;3.20;99.90
40732;DHT22;26420;52.256;9.096;2024-01-06T15:53:54;3.00;99.90
40732;DHT22;26420;52.256;9.096;2024-01-06T15:58:57;3.10;99.90
40732;DHT22;26420;52.256;9.096;2024-01-06T16:03:59;3.10;99.90
40732;DHT22;26420;52.256;9.096;2024-01-06T16:09:01;2.90;99.90
40732;DHT22;26420;52.256;9.096;2024-01-06T16:14:03;2.80;99.90
40732;DHT22;26420;52.256;9.096;2024-01-06T16:19:04;2.70;99.90
40732;DHT22;26420;52.256;9.096;2024-01-06T16:24:07;2.70;99.90
40732;DHT22;26420;52.256;9.096;2024-01-06T16:29:08;2.70;99.90
40732;DHT22;26420;52.256;9.096;2024-01-06T16:34:10;2.70;99.90
40732;DHT22;26420;52.256;9.096;2024-01-06T16:39:12;2.70;99.90
40732;DHT22;26420;52.256;9.096;2024-01-06T16:44:14;2.60;99.90
40732;DHT22;26420;52.256;9.096;2024-01-06T16:49:16;2.60;99.90
40732;DHT22;26420;52.256;9.096;2024-01-06T16:54:18;2.60;99.90
40732;DHT22;26420;52.256;9.096;2024-01-06T16:59:20;2.40;99.90
40732;DHT22;26420;52.256;9.096;2024-01-06T17:04:22;2.50;99.90
40732;DHT22;26420;52.256;9.096;2024-01-06T17:09:24;2.50;99.90
40732;DHT22;26420;52.256;9.096;2024-01-06T17:14:26;2.40;99.90
40732;DHT22;26420;52.256;9.096;2024-01-06T17:19:28;2.40;99.90
40732;DHT22;26420;52.256;9.096;2024-01-06T17:24:30;2.40;99.90
40732;DHT22;26420;52.256;9.096;2024-01-06T17:29:32;2.30;99.90
40732;DHT22;26420;52.256;9.096;2024-01-06T17:34:34;2.30;99.90
40732;DHT22;26420;52.256;9.096;2024-01-06T17:39:37;2.20;99.90
40732;DHT22;26420;52.256;9.096;2024-01-06T17:44:39;2.10;99.90
40732;DHT22;26420;52.256;9.096;2024-01-06T17:49:46;2.10;99.90
40732;DHT22;26420;52.256;9.096;2024-01-06T17:54:47;2.10;99.90
40732;DHT22;26420;52.256;9.096;2024-01-06T17:59:49;2.00;99.90
40732;DHT22;26420;52.256;9.096;2024-01-06T18:04:54;2.00;99.90
40732;DHT22;26420;52.256;9.096;2024-01-06T18:09:56;1.90;99.90
40732;DHT22;26420;52.256;9.096;2024-01-06T18:14:58;1.90;99.90
40732;DHT22;26420;52.256;9.096;2024-01-06T18:20:00;1.90;99.90
40732;DHT22;26420;52.256;9.096;2024-01-06T18:25:03;2.00;99.90
40732;DHT22;26420;52.256;9.096;2024-01-06T18:30:06;1.90;99.90
40732;DHT22;26420;52.256;9.096;2024-01-06T18:35:08;1.90;99.90
40732;DHT22;26420;52.256;9.096;2024-01-06T18:40:11;1.80;99.90
40732;DHT22;26420;52.256;9.096;2024-01-06T18:45:13;1.80;99.90
40732;DHT22;26420;52.256;9.096;2024-01-06T18:50:15;1.80;99.90
40732;DHT22;26420;52.256;9.096;2024-01-06T18:55:20;1.80;99.90
40732;DHT22;26420;52.256;9.096;2024-01-06T19:00:22;1.80;99.90
40732;DHT22;26420;52.256;9.096;2024-01-06T19:05:24;1.70;99.90
40732;DHT22;26420;52.256;9.096;2024-01-06T19:10:26;1.70;99.90
40732;DHT22;26420;52.256;9.096;2024-01-06T19:15:28;1.70;99.90
40732;DHT22;26420;52.256;9.096;2024-01-06T19:20:30;1.60;99.90
40732;DHT22;26420;52.256;9.096;2024-01-06T19:25:31;1.60;99.90
40732;DHT22;26420;52.256;9.096;2024-01-06T19:30:33;1.70;99.90
40732;DHT22;26420;52.256;9.096;2024-01-06T19:35:36;1.60;99.90
40732;DHT22;26420;52.256;9.096;2024-01-06T19:40:40;1.70;99.90
40732;DHT22;26420;52.256;9.096;2024-01-06T19:45:42;1.60;99.90
40732;DHT22;26420;52.256;9.096;2024-01-06T19:50:44;1.60;99.90
40732;DHT22;26420;52.256;9.096;2024-01-06T19:55:46;1.70;99.90
40732;DHT22;26420;52.256;9.096;2024-01-06T20:00:48;1.70;99.90
40732;DHT22;26420;52.256;9.096;2024-01-06T20:05:50;1.60;99.90
40732;DHT22;26420;52.256;9.096;2024-01-06T20:10:51;1.60;99.90
40732;DHT22;26420;52.256;9.096;2024-01-06T20:15:55;1.50;99.90
40732;DHT22;26420;52.256;9.096;2024-01-06T20:20:57;1.50;99.90
40732;DHT22;26420;52.256;9.096;2024-01-06T20:25:59;1.50;99.90
40732;DHT22;26420;52.256;9.096;2024-01-06T20:31:01;1.40;99.90
40732;DHT22;26420;52.256;9.096;2024-01-06T20:36:05;1.40;99.90
40732;DHT22;26420;52.256;9.096;2024-01-06T20:41:08;1.20;99.90
40732;DHT22;26420;52.256;9.096;2024-01-06T20:46:16;1.20;99.90
40732;DHT22;26420;52.256;9.096;2024-01-06T20:51:19;1.30;99.90
40732;DHT22;26420;52.256;9.096;2024-01-06T20:56:21;1.20;99.90
40732;DHT22;26420;52.256;9.096;2024-01-06T21:01:23;1.30;99.90
40732;DHT22;26420;52.256;9.096;2024-01-06T21:06:25;1.30;99.90
40732;DHT22;26420;52.256;9.096;2024-01-06T21:11:28;1.20;99.90
40732;DHT22;26420;52.256;9.096;2024-01-06T21:16:30;1.20;99.90
40732;DHT22;26420;52.256;9.096;2024-01-06T21:21:32;1.20;99.90
40732;DHT22;26420;52.256;9.096;2024-01-06T21:26:34;1.10;99.90
40732;DHT22;26420;52.256;9.096;2024-01-06T21:31:37;1.10;99.90
40732;DHT22;26420;52.256;9.096;2024-01-06T21:36:39;1.00;99.90
40732;DHT22;26420;52.256;9.096;2024-01-06T21:41:42;1.00;99.90
40732;DHT22;26420;52.256;9.096;2024-01-06T21:46:45;0.90;99.90
40732;DHT22;26420;52.256;9.096;2024-01-06T21:51:52;0.90;99.90
40732;DHT22;26420;52.256;9.096;2024-01-06T21:56:55;0.90;99.90
40732;DHT22;26420;52.256;9.096;2024-01-06T22:01:57;0.90;99.90
40732;DHT22;26420;52.256;9.096;2024-01-06T22:06:59;0.80;99.90
40732;DHT22;26420;52.256;9.096;2024-01-06T22:12:01;0.90;99.90
40732;DHT22;26420;52.256;9.096;2024-01-06T22:17:03;0.90;99.90
40732;DHT22;26420;52.256;9.096;2024-01-06T22:22:05;0.80;99.90
40732;DHT22;26420;52.256;9.096;2024-01-06T22:27:07;0.80;99.90
40732;DHT22;26420;52.256;9.096;2024-01-06T22:32:09;0.70;99.90
40732;DHT22;26420;52.256;9.096;2024-01-06T22:37:10;0.70;99.90
40732;DHT22;26420;52.256;9.096;2024-01-06T22:42:13;0.70;99.90
40732;DHT22;26420;52.256;9.096;2024-01-06T22:47:15;0.60;99.90
40732;DHT22;26420;52.256;9.096;2024-01-06T22:52:17;0.70;99.90
40732;DHT22;26420;52.256;9.096;2024-01-06T22:57:19;0.70;99.90
40732;DHT22;26420;52.256;9.096;2024-01-06T23:02:20;0.60;99.90
40732;DHT22;26420;52.256;9.096;2024-01-06T23:07:22;0.60;99.90
40732;DHT22;26420;52.256;9.096;2024-01-06T23:12:25;0.60;99.90
40732;DHT22;26420;52.256;9.096;2024-01-06T23:17:27;0.50;99.90
40732;DHT22;26420;52.256;9.096;2024-01-06T23:22:29;0.50;99.90
40732;DHT22;26420;52.256;9.096;2024-01-06T23:27:30;0.50;99.90
40732;DHT22;26420;52.256;9.096;2024-01-06T23:32:32;0.50;99.90
40732;DHT22;26420;52.256;9.096;2024-01-06T23:37:34;0.50;99.90
40732;DHT22;26420;52.256;9.096;2024-01-06T23:42:40;0.50;99.90
40732;DHT22;26420;52.256;9.096;2024-01-06T23:47:42;0.50;99.90
40732;DHT22;26420;52.256;9.096;2024-01-06T23:52:45;0.50;99.90
40732;DHT22;26420;52.256;9.096;2024-01-06T23:57:47;0.50;99.90
